createdAt,value
2016-08-21T00:00:27.088Z,17.94
2016-08-21T00:01:27.246Z,18.02
2016-08-21T00:02:27.028Z,17.97
2016-08-21T00:03:25.771Z,18.02
2016-08-21T00:04:26.904Z,18
2016-08-21T00:05:26.160Z,17.91
2016-08-21T00:06:25.609Z,17.84
2016-08-21T00:07:26.975Z,17.81
2016-08-21T00:08:25.322Z,17.81
2016-08-21T00:09:25.291Z,17.63
2016-08-21T00:10:26.633Z,17.66
2016-08-21T00:11:26.614Z,17.71
2016-08-21T00:12:26.548Z,17.76
2016-08-21T00:13:25.805Z,17.7
2016-08-21T00:14:25.956Z,17.78
2016-08-21T00:15:26.483Z,17.73
2016-08-21T00:16:26.353Z,17.74
2016-08-21T00:17:26.308Z,17.69
2016-08-21T00:18:25.571Z,17.63
2016-08-21T00:19:26.267Z,17.62
2016-08-21T00:20:26.174Z,17.66
2016-08-21T00:21:26.127Z,17.64
2016-08-21T00:22:25.781Z,17.71
2016-08-21T00:23:26.432Z,17.89
2016-08-21T00:24:26.181Z,17.85
2016-08-21T00:25:25.952Z,17.78
2016-08-21T00:26:26.094Z,17.73
2016-08-21T00:27:25.840Z,17.7
2016-08-21T00:28:25.120Z,17.7
2016-08-21T00:29:25.948Z,17.71
2016-08-21T00:30:26.303Z,17.64
2016-08-21T00:31:25.662Z,17.64
2016-08-21T00:32:25.818Z,17.62
2016-08-21T00:33:25.786Z,17.63
2016-08-21T00:34:25.723Z,17.57
2016-08-21T00:35:25.670Z,17.53
2016-08-21T00:36:24.754Z,17.54
2016-08-21T00:37:25.384Z,17.48
2016-08-21T00:38:25.349Z,17.5
2016-08-21T00:39:24.593Z,17.47
2016-08-21T00:40:24.551Z,17.46
2016-08-21T00:41:24.505Z,17.48
2016-08-21T00:42:25.361Z,17.41
2016-08-21T00:43:25.502Z,17.46
2016-08-21T00:44:25.073Z,17.48
2016-08-21T00:45:25.031Z,17.44
2016-08-21T00:46:25.173Z,17.38
2016-08-21T00:47:24.983Z,17.48
2016-08-21T00:48:24.880Z,17.47
2016-08-21T00:49:25.272Z,17.46
2016-08-21T00:50:24.784Z,17.41
2016-08-21T00:51:24.741Z,17.44
2016-08-21T00:52:24.683Z,17.48
2016-08-21T00:53:24.845Z,17.46
2016-08-21T00:54:23.893Z,17.38
2016-08-21T00:55:24.543Z,17.46
2016-08-21T00:56:24.702Z,17.5
2016-08-21T00:57:24.462Z,17.46
2016-08-21T00:58:24.413Z,17.43
2016-08-21T00:59:24.562Z,17.44
2016-08-21T01:00:24.331Z,17.38
2016-08-21T01:01:24.266Z,17.41
2016-08-21T01:02:24.628Z,17.41
2016-08-21T01:03:24.177Z,17.36
2016-08-21T01:04:24.134Z,17.41
2016-08-21T01:05:24.284Z,17.36
2016-08-21T01:06:24.243Z,17.43
2016-08-21T01:07:23.981Z,17.47
2016-08-21T01:08:24.944Z,17.47
2016-08-21T01:09:23.900Z,17.53
2016-08-21T01:10:24.043Z,17.57
2016-08-21T01:11:24.001Z,17.62
2016-08-21T01:12:23.959Z,17.74
2016-08-21T01:13:23.695Z,17.76
2016-08-21T01:14:23.673Z,17.71
2016-08-21T01:15:23.624Z,17.81
2016-08-21T01:16:23.779Z,17.81
2016-08-21T01:17:23.524Z,17.79
2016-08-21T01:18:23.183Z,17.79
2016-08-21T01:19:22.715Z,17.74
2016-08-21T01:20:23.384Z,17.62
2016-08-21T01:21:22.643Z,17.63
2016-08-21T01:22:22.593Z,17.64
2016-08-21T01:23:22.601Z,17.73
2016-08-21T01:24:23.194Z,17.74
2016-08-21T01:25:23.373Z,17.69
2016-08-21T01:26:23.104Z,17.62
2016-08-21T01:27:23.066Z,17.66
2016-08-21T01:28:22.328Z,17.66
2016-08-21T01:29:22.962Z,17.63
2016-08-21T01:30:22.441Z,17.55
2016-08-21T01:31:23.072Z,17.63
2016-08-21T01:32:23.014Z,17.63
2016-08-21T01:33:22.085Z,17.69
2016-08-21T01:34:22.744Z,17.79
2016-08-21T01:35:22.906Z,17.74
2016-08-21T01:36:22.633Z,17.71
2016-08-21T01:37:22.115Z,17.71
2016-08-21T01:38:22.536Z,17.79
2016-08-21T01:39:22.514Z,17.69
2016-08-21T01:40:21.459Z,17.76
2016-08-21T01:41:22.428Z,17.67
2016-08-21T01:42:22.383Z,17.74
2016-08-21T01:43:21.613Z,17.7
2016-08-21T01:44:21.632Z,17.62
2016-08-21T01:45:20.819Z,17.64
2016-08-21T01:46:22.386Z,17.69
2016-08-21T01:47:21.443Z,17.71
2016-08-21T01:48:22.082Z,17.71
2016-08-21T01:49:21.329Z,17.73
2016-08-21T01:50:22.182Z,17.73
2016-08-21T01:51:21.941Z,17.79
2016-08-21T01:52:21.898Z,17.7
2016-08-21T01:53:21.852Z,17.81
2016-08-21T01:54:20.779Z,17.71
2016-08-21T01:55:21.053Z,17.74
2016-08-21T01:56:21.211Z,17.69
2016-08-21T01:57:21.671Z,17.74
2016-08-21T01:58:21.618Z,17.74
2016-08-21T01:59:21.070Z,17.73
2016-08-21T02:00:21.529Z,17.67
2016-08-21T02:01:20.781Z,17.7
2016-08-21T02:02:21.438Z,17.78
2016-08-21T02:03:20.684Z,17.73
2016-08-21T02:04:21.335Z,17.7
2016-08-21T02:05:20.582Z,17.78
2016-08-21T02:06:21.463Z,17.57
2016-08-21T02:07:21.191Z,17.66
2016-08-21T02:08:21.153Z,17.64
2016-08-21T02:09:20.414Z,17.66
2016-08-21T02:10:20.423Z,17.62
2016-08-21T02:11:21.026Z,17.55
2016-08-21T02:12:20.974Z,17.59
2016-08-21T02:13:20.234Z,17.53
2016-08-21T02:14:20.862Z,17.59
2016-08-21T02:15:20.843Z,17.51
2016-08-21T02:16:20.292Z,17.57
2016-08-21T02:17:20.033Z,17.59
2016-08-21T02:18:20.677Z,17.62
2016-08-21T02:19:19.942Z,17.59
2016-08-21T02:20:19.953Z,17.54
2016-08-21T02:21:20.555Z,17.62
2016-08-21T02:22:20.503Z,17.71
2016-08-21T02:23:20.463Z,17.67
2016-08-21T02:24:19.725Z,17.64
2016-08-21T02:25:20.361Z,17.66
2016-08-21T02:26:20.301Z,17.73
2016-08-21T02:27:20.279Z,17.67
2016-08-21T02:28:19.962Z,17.73
2016-08-21T02:29:20.208Z,17.71
2016-08-21T02:30:20.124Z,17.66
2016-08-21T02:31:20.082Z,17.74
2016-08-21T02:32:20.233Z,17.62
2016-08-21T02:33:20.183Z,17.59
2016-08-21T02:34:19.945Z,17.57
2016-08-21T02:35:19.892Z,17.48
2016-08-21T02:36:19.852Z,17.62
2016-08-21T02:37:19.854Z,17.66
2016-08-21T02:38:19.761Z,17.69
2016-08-21T02:39:19.783Z,17.67
2016-08-21T02:40:19.873Z,17.63
2016-08-21T02:41:19.623Z,17.62
2016-08-21T02:42:19.771Z,17.62
2016-08-21T02:43:19.515Z,17.51
2016-08-21T02:44:19.494Z,17.51
2016-08-21T02:45:19.426Z,17.53
2016-08-21T02:46:19.397Z,17.57
2016-08-21T02:47:18.641Z,17.57
2016-08-21T02:48:18.592Z,17.57
2016-08-21T02:49:18.563Z,17.63
2016-08-21T02:50:19.208Z,17.64
2016-08-21T02:51:18.449Z,17.63
2016-08-21T02:52:19.311Z,17.64
2016-08-21T02:53:19.061Z,17.71
2016-08-21T02:54:19.008Z,17.73
2016-08-21T02:55:18.967Z,17.82
2016-08-21T02:56:18.916Z,17.81
2016-08-21T02:57:18.868Z,17.78
2016-08-21T02:58:18.823Z,17.76
2016-08-21T02:59:18.094Z,17.71
2016-08-21T03:00:18.743Z,17.67
2016-08-21T03:01:18.683Z,17.74
2016-08-21T03:02:17.943Z,17.71
2016-08-21T03:03:18.796Z,17.69
2016-08-21T03:04:18.554Z,17.71
2016-08-21T03:05:18.717Z,17.78
2016-08-21T03:06:18.487Z,17.78
2016-08-21T03:07:17.704Z,17.81
2016-08-21T03:08:17.659Z,17.78
2016-08-21T03:09:18.313Z,17.79
2016-08-21T03:10:18.274Z,17.78
2016-08-21T03:11:18.235Z,17.85
2016-08-21T03:12:18.163Z,17.87
2016-08-21T03:13:18.199Z,17.76
2016-08-21T03:14:17.393Z,17.79
2016-08-21T03:15:17.339Z,17.69
2016-08-21T03:16:17.994Z,17.7
2016-08-21T03:17:17.948Z,17.73
2016-08-21T03:18:17.914Z,17.67
2016-08-21T03:19:17.863Z,17.7
2016-08-21T03:20:17.832Z,17.7
2016-08-21T03:21:17.755Z,17.69
2016-08-21T03:22:17.722Z,17.78
2016-08-21T03:23:17.657Z,17.71
2016-08-21T03:24:16.923Z,17.71
2016-08-21T03:25:17.579Z,17.7
2016-08-21T03:26:17.734Z,17.76
2016-08-21T03:27:17.493Z,17.74
2016-08-21T03:28:16.752Z,17.74
2016-08-21T03:29:17.374Z,17.7
2016-08-21T03:30:16.636Z,17.71
2016-08-21T03:31:17.282Z,17.73
2016-08-21T03:32:17.453Z,17.59
2016-08-21T03:33:16.510Z,17.66
2016-08-21T03:34:17.153Z,17.62
2016-08-21T03:35:17.117Z,17.62
2016-08-21T03:36:16.359Z,17.59
2016-08-21T03:37:17.022Z,17.62
2016-08-21T03:38:16.967Z,17.64
2016-08-21T03:39:16.417Z,17.73
2016-08-21T03:40:16.872Z,17.73
2016-08-21T03:41:16.832Z,17.69
2016-08-21T03:42:16.776Z,17.67
2016-08-21T03:43:16.744Z,17.67
2016-08-21T03:44:16.677Z,17.66
2016-08-21T03:45:15.944Z,17.73
2016-08-21T03:46:16.612Z,17.66
2016-08-21T03:47:16.542Z,17.62
2016-08-21T03:48:15.803Z,17.66
2016-08-21T03:49:16.775Z,17.64
2016-08-21T03:50:15.714Z,17.69
2016-08-21T03:51:16.582Z,17.62
2016-08-21T03:52:15.614Z,17.66
2016-08-21T03:53:15.565Z,17.54
2016-08-21T03:54:16.245Z,17.62
2016-08-21T03:55:15.473Z,17.67
2016-08-21T03:56:16.134Z,17.67
2016-08-21T03:57:15.408Z,17.62
2016-08-21T03:58:16.040Z,17.64
2016-08-21T03:59:15.985Z,17.54
2016-08-21T04:00:15.255Z,17.63
2016-08-21T04:01:15.192Z,17.7
2016-08-21T04:02:15.865Z,17.64
2016-08-21T04:03:16.012Z,17.66
2016-08-21T04:04:16.163Z,17.64
2016-08-21T04:05:15.723Z,17.55
2016-08-21T04:06:15.874Z,17.55
2016-08-21T04:07:15.827Z,17.57
2016-08-21T04:08:15.761Z,17.55
2016-08-21T04:09:15.533Z,17.53
2016-08-21T04:10:15.483Z,17.55
2016-08-21T04:11:14.716Z,17.63
2016-08-21T04:12:14.689Z,17.51
2016-08-21T04:13:15.361Z,17.33
2016-08-21T04:14:15.701Z,17.4
2016-08-21T04:15:15.253Z,17.38
2016-08-21T04:16:15.612Z,17.41
2016-08-21T04:17:15.152Z,17.36
2016-08-21T04:18:14.414Z,17.43
2016-08-21T04:19:14.366Z,17.4
2016-08-21T04:20:15.222Z,17.33
2016-08-21T04:21:15.033Z,17.26
2016-08-21T04:22:14.215Z,17.36
2016-08-21T04:23:15.069Z,17.35
2016-08-21T04:24:15.034Z,17.36
2016-08-21T04:25:15.202Z,17.44
2016-08-21T04:26:14.944Z,17.5
2016-08-21T04:27:14.679Z,17.46
2016-08-21T04:28:14.841Z,17.46
2016-08-21T04:29:14.592Z,17.51
2016-08-21T04:30:14.541Z,17.46
2016-08-21T04:31:14.000Z,17.5
2016-08-21T04:32:14.680Z,17.41
2016-08-21T04:33:14.324Z,17.38
2016-08-21T04:34:14.425Z,17.4
2016-08-21T04:35:14.496Z,17.33
2016-08-21T04:36:14.274Z,17.28
2016-08-21T04:37:13.784Z,17.44
2016-08-21T04:38:14.200Z,17.36
2016-08-21T04:39:14.529Z,17.36
2016-08-21T04:40:14.101Z,17.32
2016-08-21T04:41:14.039Z,17.26
2016-08-21T04:42:14.001Z,17.29
2016-08-21T04:43:13.940Z,17.26
2016-08-21T04:44:13.890Z,17.25
2016-08-21T04:45:13.859Z,17.2
2016-08-21T04:46:13.802Z,17.11
2016-08-21T04:47:13.747Z,17.22
2016-08-21T04:48:13.700Z,17.18
2016-08-21T04:49:13.674Z,17.18
2016-08-21T04:50:13.883Z,17.2
2016-08-21T04:51:13.560Z,17.17
2016-08-21T04:52:13.514Z,17.22
2016-08-21T04:53:13.490Z,17.26
2016-08-21T04:54:13.628Z,17.22
2016-08-21T04:55:13.579Z,17.14
2016-08-21T04:56:12.668Z,17.2
2016-08-21T04:57:13.341Z,17.26
2016-08-21T04:58:13.331Z,17.23
2016-08-21T04:59:13.398Z,17.26
2016-08-21T05:00:13.147Z,17.25
2016-08-21T05:01:13.305Z,17.26
2016-08-21T05:02:12.552Z,17.26
2016-08-21T05:03:13.016Z,17.28
2016-08-21T05:04:13.161Z,17.28
2016-08-21T05:05:12.915Z,17.28
2016-08-21T05:06:12.860Z,17.32
2016-08-21T05:07:12.807Z,17.26
2016-08-21T05:08:12.773Z,17.25
2016-08-21T05:09:12.013Z,17.36
2016-08-21T05:10:11.984Z,17.47
2016-08-21T05:11:12.648Z,17.46
2016-08-21T05:12:12.984Z,17.41
2016-08-21T05:13:12.571Z,17.35
2016-08-21T05:14:11.891Z,17.4
2016-08-21T05:15:12.594Z,17.44
2016-08-21T05:16:11.688Z,17.4
2016-08-21T05:17:12.350Z,17.4
2016-08-21T05:18:12.308Z,17.38
2016-08-21T05:19:12.251Z,17.43
2016-08-21T05:20:12.413Z,17.48
2016-08-21T05:21:12.382Z,17.4
2016-08-21T05:22:12.312Z,17.44
2016-08-21T05:23:12.262Z,17.38
2016-08-21T05:24:12.005Z,17.46
2016-08-21T05:25:11.273Z,17.46
2016-08-21T05:26:11.928Z,17.47
2016-08-21T05:27:11.868Z,17.41
2016-08-21T05:28:11.831Z,17.48
2016-08-21T05:29:11.082Z,17.4
2016-08-21T05:30:12.552Z,17.38
2016-08-21T05:31:11.686Z,17.5
2016-08-21T05:32:11.133Z,17.48
2016-08-21T05:33:10.191Z,17.47
2016-08-21T05:34:11.558Z,17.48
2016-08-21T05:35:11.888Z,17.62
2016-08-21T05:36:10.760Z,17.57
2016-08-21T05:37:11.632Z,17.59
2016-08-21T05:38:10.742Z,17.62
2016-08-21T05:39:10.612Z,17.63
2016-08-21T05:40:11.458Z,17.69
2016-08-21T05:41:11.220Z,17.63
2016-08-21T05:42:11.384Z,17.63
2016-08-21T05:43:10.421Z,17.63
2016-08-21T05:44:10.511Z,17.63
2016-08-21T05:45:11.031Z,17.69
2016-08-21T05:46:11.011Z,17.69
2016-08-21T05:47:10.943Z,17.66
2016-08-21T05:48:10.882Z,17.63
2016-08-21T05:49:10.142Z,17.63
2016-08-21T05:50:10.322Z,17.62
2016-08-21T05:51:10.252Z,17.62
2016-08-21T05:52:09.303Z,17.62
2016-08-21T05:53:10.656Z,17.62
2016-08-21T05:54:10.612Z,17.54
2016-08-21T05:55:09.872Z,17.54
2016-08-21T05:56:10.569Z,17.55
2016-08-21T05:57:10.535Z,17.59
2016-08-21T05:58:10.422Z,17.55
2016-08-21T05:59:10.370Z,17.59
2016-08-21T06:00:10.344Z,17.63
2016-08-21T06:01:10.282Z,17.64
2016-08-21T06:02:09.546Z,17.59
2016-08-21T06:03:10.273Z,17.51
2016-08-21T06:04:10.141Z,17.57
2016-08-21T06:05:10.093Z,17.53
2016-08-21T06:06:10.062Z,17.48
2016-08-21T06:07:10.006Z,17.53
2016-08-21T06:08:09.966Z,17.57
2016-08-21T06:09:09.919Z,17.55
2016-08-21T06:10:09.861Z,17.55
2016-08-21T06:11:09.826Z,17.57
2016-08-21T06:12:09.772Z,17.62
2016-08-21T06:13:09.022Z,17.51
2016-08-21T06:14:08.495Z,17.54
2016-08-21T06:15:09.643Z,17.63
2016-08-21T06:16:09.582Z,17.59
2016-08-21T06:17:08.138Z,17.62
2016-08-21T06:18:08.833Z,17.54
2016-08-21T06:19:09.454Z,17.54
2016-08-21T06:20:08.707Z,17.62
2016-08-21T06:21:09.361Z,17.59
2016-08-21T06:22:09.325Z,17.59
2016-08-21T06:23:08.753Z,17.57
2016-08-21T06:24:08.518Z,17.59
2016-08-21T06:25:08.455Z,17.63
2016-08-21T06:26:08.413Z,17.62
2016-08-21T06:27:09.077Z,17.57
2016-08-21T06:28:09.025Z,17.63
2016-08-21T06:29:08.281Z,17.76
2016-08-21T06:30:08.917Z,17.69
2016-08-21T06:31:08.894Z,17.7
2016-08-21T06:32:08.832Z,17.81
2016-08-21T06:33:08.083Z,17.79
2016-08-21T06:34:08.734Z,17.69
2016-08-21T06:35:08.698Z,17.78
2016-08-21T06:36:08.842Z,17.79
2016-08-21T06:37:08.674Z,17.82
2016-08-21T06:38:08.753Z,17.73
2016-08-21T06:39:08.724Z,17.7
2016-08-21T06:40:07.800Z,17.73
2016-08-21T06:41:08.603Z,17.7
2016-08-21T06:42:09.045Z,17.66
2016-08-21T06:43:08.349Z,17.62
2016-08-21T06:44:08.282Z,17.62
2016-08-21T06:45:07.749Z,17.59
2016-08-21T06:46:07.672Z,17.62
2016-08-21T06:47:08.112Z,17.63
2016-08-21T06:48:08.110Z,17.62
2016-08-21T06:49:08.043Z,17.66
2016-08-21T06:50:07.994Z,17.66
2016-08-21T06:51:07.252Z,17.74
2016-08-21T06:52:07.903Z,17.71
2016-08-21T06:53:07.354Z,17.74
2016-08-21T06:54:07.110Z,17.7
2016-08-21T06:55:07.794Z,17.78
2016-08-21T06:56:07.741Z,17.7
2016-08-21T06:57:07.671Z,17.71
2016-08-21T06:58:07.872Z,17.7
2016-08-21T06:59:07.683Z,17.7
2016-08-21T07:00:07.023Z,17.7
2016-08-21T07:01:06.772Z,17.82
2016-08-21T07:02:06.733Z,17.82
2016-08-21T07:03:06.683Z,17.81
2016-08-21T07:04:07.330Z,17.87
2016-08-21T07:05:07.297Z,17.89
2016-08-21T07:06:07.507Z,17.84
2016-08-21T07:07:07.184Z,17.85
2016-08-21T07:08:07.446Z,17.87
2016-08-21T07:09:06.598Z,17.88
2016-08-21T07:10:07.046Z,17.95
2016-08-21T07:11:05.815Z,18.02
2016-08-21T07:12:06.462Z,18.07
2016-08-21T07:13:06.441Z,18.1
2016-08-21T07:14:06.362Z,18.19
2016-08-21T07:15:06.823Z,18.21
2016-08-21T07:16:06.771Z,18.25
2016-08-21T07:17:06.030Z,18.22
2016-08-21T07:18:06.679Z,18.19
2016-08-21T07:19:06.643Z,18.18
2016-08-21T07:20:06.600Z,18.15
2016-08-21T07:21:06.533Z,18.22
2016-08-21T07:22:05.798Z,18.22
2016-08-21T07:23:06.441Z,18.18
2016-08-21T07:24:06.405Z,18.21
2016-08-21T07:25:05.132Z,18.18
2016-08-21T07:26:06.512Z,18.21
2016-08-21T07:27:05.643Z,18.22
2016-08-21T07:28:05.516Z,18.22
2016-08-21T07:29:06.162Z,18.21
2016-08-21T07:30:06.126Z,18.1
2016-08-21T07:31:06.099Z,18.21
2016-08-21T07:32:06.446Z,18.19
2016-08-21T07:33:05.979Z,18.24
2016-08-21T07:34:05.233Z,18.19
2016-08-21T07:35:05.877Z,18.21
2016-08-21T07:36:05.843Z,18.1
2016-08-21T07:37:05.103Z,18.21
2016-08-21T07:38:05.832Z,18.15
2016-08-21T07:39:06.910Z,18.15
2016-08-21T07:40:05.664Z,18.21
2016-08-21T07:41:04.920Z,18.28
2016-08-21T07:42:05.593Z,18.34
2016-08-21T07:43:04.815Z,18.43
2016-08-21T07:44:05.472Z,18.49
2016-08-21T07:45:04.741Z,18.46
2016-08-21T07:46:05.380Z,18.47
2016-08-21T07:47:05.553Z,18.49
2016-08-21T07:48:05.312Z,18.55
2016-08-21T07:49:05.252Z,18.5
2016-08-21T07:50:05.200Z,18.44
2016-08-21T07:51:05.182Z,18.49
2016-08-21T07:52:05.111Z,18.46
2016-08-21T07:53:05.275Z,18.44
2016-08-21T07:54:05.012Z,18.49
2016-08-21T07:55:04.470Z,18.58
2016-08-21T07:56:04.217Z,18.54
2016-08-21T07:57:04.883Z,18.43
2016-08-21T07:58:04.140Z,18.46
2016-08-21T07:59:05.201Z,18.4
2016-08-21T08:00:04.234Z,18.47
2016-08-21T08:01:04.973Z,18.43
2016-08-21T08:02:04.641Z,18.39
2016-08-21T08:03:04.602Z,18.42
2016-08-21T08:04:03.855Z,18.27
2016-08-21T08:05:04.714Z,18.24
2016-08-21T08:06:03.763Z,18.21
2016-08-21T08:07:04.409Z,18.25
2016-08-21T08:08:04.363Z,18.27
2016-08-21T08:09:03.622Z,18.33
2016-08-21T08:10:04.682Z,18.29
2016-08-21T08:11:04.431Z,18.36
2016-08-21T08:12:04.205Z,18.33
2016-08-21T08:13:04.129Z,18.33
2016-08-21T08:14:04.136Z,18.27
2016-08-21T08:15:04.056Z,18.22
2016-08-21T08:16:03.992Z,18.19
2016-08-21T08:17:03.952Z,18.19
2016-08-21T08:18:03.907Z,17.99
2016-08-21T08:19:03.850Z,17.97
2016-08-21T08:20:02.853Z,17.92
2016-08-21T08:21:03.973Z,17.82
2016-08-21T08:22:03.714Z,17.88
2016-08-21T08:23:03.678Z,17.97
2016-08-21T08:24:02.919Z,17.88
2016-08-21T08:25:03.582Z,17.87
2016-08-21T08:26:03.552Z,17.81
2016-08-21T08:27:03.758Z,17.79
2016-08-21T08:28:02.744Z,17.64
2016-08-21T08:29:03.485Z,17.57
2016-08-21T08:30:03.346Z,17.55
2016-08-21T08:31:03.731Z,17.47
2016-08-21T08:32:03.255Z,17.41
2016-08-21T08:33:03.261Z,17.41
2016-08-21T08:34:03.176Z,17.36
2016-08-21T08:35:03.138Z,17.32
2016-08-21T08:36:02.383Z,17.23
2016-08-21T08:37:03.054Z,17.14
2016-08-21T08:38:02.305Z,17.08
2016-08-21T08:39:02.274Z,17.11
2016-08-21T08:40:02.897Z,17.07
2016-08-21T08:41:02.152Z,16.96
2016-08-21T08:42:02.793Z,17.06
2016-08-21T08:43:02.242Z,16.83
2016-08-21T08:44:03.113Z,16.89
2016-08-21T08:45:02.645Z,16.63
2016-08-21T08:46:02.616Z,16.52
2016-08-21T08:47:01.906Z,16.48
2016-08-21T08:48:02.542Z,16.44
2016-08-21T08:49:02.474Z,16.44
2016-08-21T08:50:01.955Z,16.38
2016-08-21T08:51:01.665Z,16.42
2016-08-21T08:52:01.632Z,16.41
2016-08-21T08:53:01.626Z,16.48
2016-08-21T08:54:02.226Z,16.38
2016-08-21T08:55:02.190Z,16.31
2016-08-21T08:56:01.638Z,16.26
2016-08-21T08:57:01.401Z,16.26
2016-08-21T08:58:02.034Z,16.25
2016-08-21T08:59:01.982Z,16.04
2016-08-21T09:00:01.975Z,16.15
2016-08-21T09:01:01.903Z,16.04
2016-08-21T09:02:01.877Z,16.18
2016-08-21T09:03:01.844Z,16.12
2016-08-21T09:04:01.045Z,16.3
2016-08-21T09:05:01.783Z,16.34
2016-08-21T09:06:01.852Z,16.26
2016-08-21T09:07:01.598Z,16.38
2016-08-21T09:08:00.882Z,16.35
2016-08-21T09:09:01.732Z,16.41
2016-08-21T09:10:00.789Z,16.4
2016-08-21T09:11:00.732Z,16.37
2016-08-21T09:12:01.405Z,16.34
2016-08-21T09:13:00.622Z,16.41
2016-08-21T09:14:01.275Z,16.5
2016-08-21T09:15:00.514Z,16.53
2016-08-21T09:16:00.522Z,16.62
2016-08-21T09:17:01.358Z,16.65
2016-08-21T09:18:00.424Z,16.49
2016-08-21T09:19:01.042Z,16.53
2016-08-21T09:20:00.994Z,16.55
2016-08-21T09:21:00.944Z,16.71
2016-08-21T09:22:00.964Z,16.81
2016-08-21T09:23:00.843Z,16.89
2016-08-21T09:24:00.800Z,16.88
2016-08-21T09:25:00.753Z,16.78
2016-08-21T09:26:01.112Z,16.71
2016-08-21T09:27:00.663Z,16.6
2016-08-21T09:28:00.319Z,16.55
2016-08-21T09:29:00.747Z,16.55
2016-08-21T09:29:59.855Z,16.63
2016-08-21T09:31:00.464Z,16.68
2016-08-21T09:31:59.724Z,16.62
2016-08-21T09:33:00.386Z,16.63
2016-08-21T09:34:00.333Z,16.6
2016-08-21T09:35:00.361Z,16.7
2016-08-21T09:36:00.434Z,16.77
2016-08-21T09:36:59.485Z,16.75
2016-08-21T09:37:59.007Z,16.85
2016-08-21T09:38:59.434Z,16.81
2016-08-21T09:39:58.631Z,16.78
2016-08-21T09:41:00.199Z,16.78
2016-08-21T09:42:00.155Z,16.68
2016-08-21T09:42:59.924Z,16.73
2016-08-21T09:43:59.358Z,16.68
2016-08-21T09:44:59.805Z,16.73
2016-08-21T09:45:59.072Z,16.77
2016-08-21T09:46:59.704Z,16.83
2016-08-21T09:47:59.668Z,16.93
2016-08-21T09:48:59.621Z,16.99
2016-08-21T09:49:58.873Z,17.06
2016-08-21T09:50:58.824Z,17
2016-08-21T09:51:59.471Z,17.04
2016-08-21T09:52:59.423Z,17.04
2016-08-21T09:53:59.406Z,16.9
2016-08-21T09:54:59.537Z,17.07
2016-08-21T09:55:58.585Z,17.06
2016-08-21T09:56:58.747Z,17.17
2016-08-21T09:57:58.488Z,17.25
2016-08-21T09:58:59.144Z,17.29
2016-08-21T09:59:59.096Z,17.26
2016-08-21T10:00:59.253Z,17.25
2016-08-21T10:01:58.300Z,17.43
2016-08-21T10:02:58.256Z,17.36
2016-08-21T10:03:58.919Z,17.35
2016-08-21T10:04:58.154Z,17.3
2016-08-21T10:05:58.821Z,17.43
2016-08-21T10:06:58.083Z,17.41
2016-08-21T10:07:58.024Z,17.46
2016-08-21T10:08:58.872Z,17.44
2016-08-21T10:09:57.923Z,17.54
2016-08-21T10:10:58.574Z,17.59
2016-08-21T10:11:58.556Z,17.63
2016-08-21T10:12:58.504Z,17.64
2016-08-21T10:13:58.443Z,17.71
2016-08-21T10:14:58.400Z,17.71
2016-08-21T10:15:58.354Z,17.69
2016-08-21T10:16:58.370Z,17.74
2016-08-21T10:17:58.250Z,17.78
2016-08-21T10:18:58.202Z,17.71
2016-08-21T10:19:58.144Z,17.79
2016-08-21T10:20:58.357Z,17.76
2016-08-21T10:21:58.296Z,17.79
2016-08-21T10:22:58.042Z,17.74
2016-08-21T10:23:57.287Z,17.64
2016-08-21T10:24:58.335Z,17.63
2016-08-21T10:25:57.885Z,17.63
2016-08-21T10:26:58.644Z,17.7
2016-08-21T10:27:58.001Z,17.76
2016-08-21T10:28:57.742Z,17.84
2016-08-21T10:29:58.292Z,17.82
2016-08-21T10:30:57.636Z,17.88
2016-08-21T10:31:56.927Z,17.92
2016-08-21T10:32:57.551Z,18.04
2016-08-21T10:33:57.713Z,18.12
2016-08-21T10:34:57.454Z,18.22
2016-08-21T10:35:57.613Z,18.22
2016-08-21T10:36:57.364Z,18.21
2016-08-21T10:37:56.624Z,18.17
2016-08-21T10:38:57.063Z,18.18
2016-08-21T10:39:57.240Z,18.22
2016-08-21T10:40:57.183Z,18.15
2016-08-21T10:41:57.126Z,18.21
2016-08-21T10:42:57.119Z,18.37
2016-08-21T10:43:56.345Z,18.44
2016-08-21T10:44:56.996Z,18.62
2016-08-21T10:45:57.762Z,18.72
2016-08-21T10:46:56.211Z,18.94
2016-08-21T10:47:56.879Z,19.01
2016-08-21T10:48:57.024Z,19.13
2016-08-21T10:49:56.792Z,19.14
2016-08-21T10:50:56.732Z,19.05
2016-08-21T10:51:56.468Z,19.02
2016-08-21T10:52:55.953Z,18.9
2016-08-21T10:53:55.885Z,18.79
2016-08-21T10:54:56.741Z,18.77
2016-08-21T10:55:56.713Z,18.82
2016-08-21T10:56:56.443Z,18.82
2016-08-21T10:57:56.473Z,18.82
2016-08-21T10:58:56.366Z,18.92
2016-08-21T10:59:56.310Z,18.82
2016-08-21T11:00:56.290Z,18.95
2016-08-21T11:01:54.820Z,18.98
2016-08-21T11:02:56.178Z,19.01
2016-08-21T11:03:56.125Z,19.02
2016-08-21T11:04:55.394Z,19.02
2016-08-21T11:05:56.034Z,18.97
2016-08-21T11:06:56.000Z,18.97
2016-08-21T11:07:55.959Z,18.83
2016-08-21T11:08:55.938Z,18.76
2016-08-21T11:09:55.872Z,18.72
2016-08-21T11:10:54.407Z,18.73
2016-08-21T11:11:55.062Z,18.79
2016-08-21T11:12:55.700Z,18.73
2016-08-21T11:13:55.590Z,18.82
2016-08-21T11:14:55.644Z,18.82
2016-08-21T11:15:54.865Z,18.77
2016-08-21T11:16:55.528Z,18.82
2016-08-21T11:17:55.896Z,18.82
2016-08-21T11:18:54.733Z,18.92
2016-08-21T11:19:54.920Z,18.79
2016-08-21T11:20:55.551Z,18.77
2016-08-21T11:21:54.589Z,18.92
2016-08-21T11:22:55.665Z,18.91
2016-08-21T11:23:55.820Z,18.91
2016-08-21T11:24:54.466Z,18.95
2016-08-21T11:25:55.394Z,18.94
2016-08-21T11:26:54.397Z,18.99
2016-08-21T11:27:53.835Z,18.99
2016-08-21T11:28:54.325Z,19.02
2016-08-21T11:29:54.973Z,19.17
2016-08-21T11:30:54.894Z,19.15
2016-08-21T11:31:54.862Z,19.24
2016-08-21T11:32:55.275Z,19.29
2016-08-21T11:33:54.785Z,19.36
2016-08-21T11:34:54.698Z,19.54
2016-08-21T11:35:54.663Z,19.68
2016-08-21T11:36:54.635Z,19.61
2016-08-21T11:37:54.072Z,19.6
2016-08-21T11:38:53.835Z,19.65
2016-08-21T11:39:54.704Z,19.68
2016-08-21T11:40:53.744Z,19.83
2016-08-21T11:41:53.706Z,19.95
2016-08-21T11:42:54.347Z,20.1
2016-08-21T11:43:53.811Z,20.25
2016-08-21T11:44:53.551Z,20.38
2016-08-21T11:45:53.016Z,20.54
2016-08-21T11:46:53.689Z,20.5
2016-08-21T11:47:54.120Z,20.5
2016-08-21T11:48:54.301Z,20.51
2016-08-21T11:49:54.039Z,20.62
2016-08-21T11:50:53.310Z,20.62
2016-08-21T11:51:52.560Z,20.61
2016-08-21T11:52:53.407Z,20.54
2016-08-21T11:53:53.153Z,20.46
2016-08-21T11:54:54.030Z,20.34
2016-08-21T11:55:53.059Z,20.28
2016-08-21T11:56:53.792Z,20.3
2016-08-21T11:57:52.305Z,20.25
2016-08-21T11:58:53.620Z,20.23
2016-08-21T11:59:52.981Z,20.35
2016-08-21T12:00:53.779Z,20.47
2016-08-21T12:01:53.509Z,20.53
2016-08-21T12:02:52.750Z,20.68
2016-08-21T12:03:53.631Z,20.76
2016-08-21T12:04:53.337Z,20.81
2016-08-21T12:05:52.805Z,20.8
2016-08-21T12:06:53.269Z,20.71
2016-08-21T12:07:52.532Z,20.68
2016-08-21T12:08:53.668Z,20.61
2016-08-21T12:09:53.553Z,20.64
2016-08-21T12:10:53.103Z,20.49
2016-08-21T12:11:53.042Z,20.5
2016-08-21T12:12:52.315Z,20.33
2016-08-21T12:13:52.966Z,20.35
2016-08-21T12:14:52.920Z,20.25
2016-08-21T12:15:52.872Z,20.3
2016-08-21T12:16:52.142Z,20.3
2016-08-21T12:17:52.786Z,20.38
2016-08-21T12:18:52.763Z,20.59
2016-08-21T12:19:52.948Z,20.62
2016-08-21T12:20:52.652Z,20.72
2016-08-21T12:21:52.622Z,20.79
2016-08-21T12:22:51.876Z,20.72
2016-08-21T12:23:51.836Z,20.77
2016-08-21T12:24:52.482Z,20.81
2016-08-21T12:25:51.910Z,20.79
2016-08-21T12:26:52.576Z,20.81
2016-08-21T12:27:52.331Z,20.77
2016-08-21T12:28:52.280Z,20.69
2016-08-21T12:29:50.859Z,20.66
2016-08-21T12:30:52.191Z,20.66
2016-08-21T12:31:52.160Z,20.64
2016-08-21T12:32:52.110Z,20.64
2016-08-21T12:33:52.089Z,20.71
2016-08-21T12:34:51.321Z,20.76
2016-08-21T12:35:51.275Z,20.68
2016-08-21T12:36:52.142Z,20.62
2016-08-21T12:37:51.229Z,20.38
2016-08-21T12:38:51.188Z,20.25
2016-08-21T12:39:50.684Z,20.23
2016-08-21T12:40:51.100Z,20.15
2016-08-21T12:41:51.733Z,20.12
2016-08-21T12:42:51.075Z,20.1
2016-08-21T12:43:51.857Z,20.09
2016-08-21T12:44:51.993Z,20.1
2016-08-21T12:45:51.751Z,20.25
2016-08-21T12:46:51.009Z,20.18
2016-08-21T12:47:50.777Z,20.09
2016-08-21T12:48:51.613Z,20.09
2016-08-21T12:49:50.684Z,20.09
2016-08-21T12:50:51.333Z,20.18
2016-08-21T12:51:51.282Z,20.18
2016-08-21T12:52:51.224Z,20.12
2016-08-21T12:53:51.278Z,20.02